sensor_id;sensor_type;location;lat;lon;timestamp;pressure;altitude;pressure_sealevel;temperature
25985;BMP280;66753;53.848;10.658;2023-05-16T00:08:00;101177.06;;;11.76
25985;BMP280;66753;53.848;10.658;2023-05-16T00:23:00;101177.28;;;11.59
25985;BMP280;66753;53.848;10.658;2023-05-16T00:38:02;101174.84;;;11.33
25985;BMP280;66753;53.848;10.658;2023-05-16T00:53:02;101191.94;;;11.44
25985;BMP280;66753;53.848;10.658;2023-05-16T01:08:03;101197.41;;;11.27
25985;BMP280;66753;53.848;10.658;2023-05-16T01:23:26;101217.38;;;11.45
25985;BMP280;66753;53.848;10.658;2023-05-16T01:38:40;101235.94;;;11.45
25985;BMP280;66753;53.848;10.658;2023-05-16T01:53:42;101231.75;;;11.44
25985;BMP280;66753;53.848;10.658;2023-05-16T02:08:44;101225.00;;;11.67
25985;BMP280;66753;53.848;10.658;2023-05-16T02:23:45;101227.66;;;11.67
25985;BMP280;66753;53.848;10.658;2023-05-16T02:38:46;101225.78;;;11.80
25985;BMP280;66753;53.848;10.658;2023-05-16T02:53:46;101235.63;;;11.79
25985;BMP280;66753;53.848;10.658;2023-05-16T03:08:47;101225.78;;;11.92
25985;BMP280;66753;53.848;10.658;2023-05-16T03:23:47;101243.28;;;11.81
25985;BMP280;66753;53.848;10.658;2023-05-16T03:38:48;101269.94;;;11.84
25985;BMP280;66753;53.848;10.658;2023-05-16T03:53:48;101249.47;;;11.85
25985;BMP280;66753;53.848;10.658;2023-05-16T04:08:49;101258.59;;;12.08
25985;BMP280;66753;53.848;10.658;2023-05-16T04:23:49;101262.94;;;12.48
25985;BMP280;66753;53.848;10.658;2023-05-16T04:38:50;101279.91;;;12.56
25985;BMP280;66753;53.848;10.658;2023-05-16T04:53:51;101299.16;;;12.41
25985;BMP280;66753;53.848;10.658;2023-05-16T05:08:52;101309.81;;;12.41
25985;BMP280;66753;53.848;10.658;2023-05-16T05:23:52;101313.25;;;12.77
25985;BMP280;66753;53.848;10.658;2023-05-16T05:38:53;101300.75;;;13.29
25985;BMP280;66753;53.848;10.658;2023-05-16T05:53:53;101321.63;;;13.55
25985;BMP280;66753;53.848;10.658;2023-05-16T06:08:55;101342.56;;;13.41
25985;BMP280;66753;53.848;10.658;2023-05-16T06:23:55;101331.03;;;13.25
25985;BMP280;66753;53.848;10.658;2023-05-16T06:38:56;101325.44;;;14.12
25985;BMP280;66753;53.848;10.658;2023-05-16T06:53:56;101344.00;;;13.66
25985;BMP280;66753;53.848;10.658;2023-05-16T07:08:56;101354.72;;;13.54
25985;BMP280;66753;53.848;10.658;2023-05-16T07:23:57;101382.66;;;14.46
25985;BMP280;66753;53.848;10.658;2023-05-16T07:38:57;101395.59;;;15.44
25985;BMP280;66753;53.848;10.658;2023-05-16T07:53:58;101390.50;;;15.39
25985;BMP280;66753;53.848;10.658;2023-05-16T08:08:58;101376.66;;;16.13
25985;BMP280;66753;53.848;10.658;2023-05-16T08:23:59;101385.44;;;15.34
25985;BMP280;66753;53.848;10.658;2023-05-16T08:38:59;101385.81;;;16.34
25985;BMP280;66753;53.848;10.658;2023-05-16T08:54:05;101395.19;;;16.99
25985;BMP280;66753;53.848;10.658;2023-05-16T09:09:06;101361.50;;;16.46
25985;BMP280;66753;53.848;10.658;2023-05-16T09:24:08;101381.75;;;17.95
25985;BMP280;66753;53.848;10.658;2023-05-16T09:39:09;101375.84;;;18.26
25985;BMP280;66753;53.848;10.658;2023-05-16T09:54:10;101390.91;;;17.94
25985;BMP280;66753;53.848;10.658;2023-05-16T10:09:12;101372.19;;;16.43
25985;BMP280;66753;53.848;10.658;2023-05-16T10:24:15;101374.34;;;16.86
25985;BMP280;66753;53.848;10.658;2023-05-16T10:39:17;101383.94;;;17.86
25985;BMP280;66753;53.848;10.658;2023-05-16T10:54:18;101368.56;;;17.46
25985;BMP280;66753;53.848;10.658;2023-05-16T11:09:23;101347.63;;;17.99
25985;BMP280;66753;53.848;10.658;2023-05-16T11:24:29;101354.19;;;18.59
25985;BMP280;66753;53.848;10.658;2023-05-16T11:39:31;101346.75;;;18.35
25985;BMP280;66753;53.848;10.658;2023-05-16T11:54:31;101347.06;;;17.76
25985;BMP280;66753;53.848;10.658;2023-05-16T12:09:33;101439.16;;;15.29
25985;BMP280;66753;53.848;10.658;2023-05-16T12:24:39;101451.97;;;16.15
25985;BMP280;66753;53.848;10.658;2023-05-16T12:39:40;101480.84;;;17.51
25985;BMP280;66753;53.848;10.658;2023-05-16T12:54:40;101501.09;;;17.19
25985;BMP280;66753;53.848;10.658;2023-05-16T13:09:41;101549.09;;;14.41
25985;BMP280;66753;53.848;10.658;2023-05-16T13:24:42;101549.25;;;14.60
25985;BMP280;66753;53.848;10.658;2023-05-16T13:39:42;101542.72;;;15.20
25985;BMP280;66753;53.848;10.658;2023-05-16T13:54:43;101542.53;;;17.51
25985;BMP280;66753;53.848;10.658;2023-05-16T14:09:43;101494.13;;;16.21
25985;BMP280;66753;53.848;10.658;2023-05-16T14:24:44;101520.84;;;14.68
25985;BMP280;66753;53.848;10.658;2023-05-16T14:39:45;101566.03;;;13.70
25985;BMP280;66753;53.848;10.658;2023-05-16T14:54:47;101566.28;;;13.65
25985;BMP280;66753;53.848;10.658;2023-05-16T15:09:48;101582.69;;;14.85
25985;BMP280;66753;53.848;10.658;2023-05-16T15:24:49;101568.41;;;15.09
25985;BMP280;66753;53.848;10.658;2023-05-16T15:39:50;101565.81;;;13.75
25985;BMP280;66753;53.848;10.658;2023-05-16T15:54:51;101576.22;;;14.43
25985;BMP280;66753;53.848;10.658;2023-05-16T16:09:51;101598.91;;;13.62
25985;BMP280;66753;53.848;10.658;2023-05-16T16:24:52;101636.19;;;12.85
25985;BMP280;66753;53.848;10.658;2023-05-16T16:39:52;101653.31;;;13.85
25985;BMP280;66753;53.848;10.658;2023-05-16T16:54:52;101640.09;;;13.52
25985;BMP280;66753;53.848;10.658;2023-05-16T17:09:53;101640.47;;;13.30
25985;BMP280;66753;53.848;10.658;2023-05-16T17:24:56;101644.34;;;12.68
25985;BMP280;66753;53.848;10.658;2023-05-16T17:39:57;101673.97;;;12.58
25985;BMP280;66753;53.848;10.658;2023-05-16T17:54:58;101686.66;;;12.32
25985;BMP280;66753;53.848;10.658;2023-05-16T18:09:59;101684.66;;;12.29
25985;BMP280;66753;53.848;10.658;2023-05-16T18:24:59;101706.03;;;12.03
25985;BMP280;66753;53.848;10.658;2023-05-16T18:40:01;101714.81;;;11.95
25985;BMP280;66753;53.848;10.658;2023-05-16T18:55:01;101710.78;;;11.81
25985;BMP280;66753;53.848;10.658;2023-05-16T19:10:02;101756.28;;;11.62
25985;BMP280;66753;53.848;10.658;2023-05-16T19:25:04;101762.56;;;11.49
25985;BMP280;66753;53.848;10.658;2023-05-16T19:40:06;101783.63;;;11.37
25985;BMP280;66753;53.848;10.658;2023-05-16T19:55:07;101789.84;;;11.33
25985;BMP280;66753;53.848;10.658;2023-05-16T20:10:09;101777.41;;;11.42
25985;BMP280;66753;53.848;10.658;2023-05-16T20:25:09;101790.69;;;11.42
25985;BMP280;66753;53.848;10.658;2023-05-16T20:40:11;101799.09;;;11.44
25985;BMP280;66753;53.848;10.658;2023-05-16T20:55:12;101793.94;;;11.47
25985;BMP280;66753;53.848;10.658;2023-05-16T21:10:13;101786.44;;;11.41
25985;BMP280;66753;53.848;10.658;2023-05-16T21:25:13;101784.88;;;11.40
25985;BMP280;66753;53.848;10.658;2023-05-16T21:40:14;101793.63;;;11.40
25985;BMP280;66753;53.848;10.658;2023-05-16T21:55:18;101802.53;;;11.27
25985;BMP280;66753;53.848;10.658;2023-05-16T22:10:19;101783.78;;;11.32
25985;BMP280;66753;53.848;10.658;2023-05-16T22:25:19;101794.75;;;11.31
25985;BMP280;66753;53.848;10.658;2023-05-16T22:40:21;101794.25;;;11.29
25985;BMP280;66753;53.848;10.658;2023-05-16T22:55:21;101808.44;;;11.16
25985;BMP280;66753;53.848;10.658;2023-05-16T23:10:21;101810.75;;;11.09
25985;BMP280;66753;53.848;10.658;2023-05-16T23:25:22;101836.97;;;11.02
25985;BMP280;66753;53.848;10.658;2023-05-16T23:40:23;101835.84;;;10.94
25985;BMP280;66753;53.848;10.658;2023-05-16T23:55:23;101829.50;;;10.65
